This is the latest recevied weather packets stored in our database for station/object OE5RBO. If no packets are shown the sender has not sent any weather packets the latest 10 day(s).
| Time | Temp. | Humidity | Pressure | Rain* | Wind** | Luminosity | Snow |
|---|---|---|---|---|---|---|---|
| 1787738871 | 25° C | 70% | 1018.1 hPa | 0.25 mm | - | - | - |
| 1787738270 | 25.56° C | 68% | 1018.1 hPa | 0.25 mm | - | - | - |
| 1787737670 | 24.44° C | 74% | 1018.2 hPa | 0.25 mm | - | - | - |
| 1787737069 | 24.44° C | 77% | 1018.2 hPa | 0.25 mm | - | - | - |
| 1787736469 | 23.33° C | 77% | 1018.3 hPa | 0.25 mm | - | - | - |
| 1787735869 | 23.89° C | 76% | 1018.3 hPa | 0.25 mm | - | - | - |
| 1787735268 | 23.33° C | 79% | 1018.1 hPa | 0.25 mm | - | - | - |
| 1787734668 | 21.67° C | 84% | 1018.1 hPa | 0.25 mm | - | - | - |
| 1787734068 | 21.67° C | 84% | 1018 hPa | 0.25 mm | - | - | - |
| 1787733467 | 21.67° C | 84% | 1018 hPa | 0.25 mm | - | - | - |
| 1787732867 | 22.22° C | 83% | 1017.9 hPa | 0.25 mm | - | - | - |
| 1787732267 | 22.22° C | 87% | 1018.1 hPa | 0.25 mm | - | - | - |
| 1787731666 | 22.22° C | 86% | 1018 hPa | 0.25 mm | - | - | - |
| 1787731066 | 20° C | 96% | 1017.7 hPa | 0.25 mm | - | - | - |
| 1787730466 | 18.89° C | 96% | 1017.5 hPa | 0.25 mm | - | - | - |
| 1787729865 | 18.89° C | 96% | 1017.4 hPa | 0.25 mm | - | - | - |
| 1787729265 | 18.33° C | 96% | 1017.3 hPa | 0.25 mm | - | - | - |
| 1787728665 | 18.89° C | 95% | 1017.2 hPa | 0.25 mm | - | - | - |
| 1787728064 | 19.44° C | 95% | 1017.1 hPa | 0.25 mm | - | - | - |
| 1787727464 | 17.78° C | 98% | 1017.1 hPa | 0.25 mm | - | - | - |
| 1787726864 | 17.22° C | 97% | 1017.1 hPa | 0.25 mm | - | - | - |
| 1787726263 | 17.22° C | 98% | 1017 hPa | 0.25 mm | - | - | - |
| 1787725663 | 16.67° C | 99% | 1017 hPa | 0.25 mm | - | - | - |
| 1787725062 | 16.67° C | 99% | 1016.9 hPa | 0.25 mm | - | - | - |
| 1787724462 | 15.56° C | 100% | 1017 hPa | 0.25 mm | - | - | - |
* Rain since midnight (hover to see other rain measurements)
** Current wind speed in m/s (hover to see current wind gust speed)